sensor_id;sensor_type;location;lat;lon;timestamp;P1;durP1;ratioP1;P2;durP2;ratioP2
5900;SDS011;2976;49.764;9.796;2022-09-01T00:01:22;2.10;;;1.87;;
5900;SDS011;2976;49.764;9.796;2022-09-01T00:03:51;2.13;;;2.03;;
5900;SDS011;2976;49.764;9.796;2022-09-01T00:06:19;1.67;;;1.60;;
5900;SDS011;2976;49.764;9.796;2022-09-01T00:08:56;2.03;;;1.93;;
5900;SDS011;2976;49.764;9.796;2022-09-01T00:11:24;1.60;;;1.47;;
5900;SDS011;2976;49.764;9.796;2022-09-01T00:13:51;2.50;;;1.83;;
5900;SDS011;2976;49.764;9.796;2022-09-01T00:16:18;1.60;;;1.60;;
5900;SDS011;2976;49.764;9.796;2022-09-01T00:18:46;1.83;;;1.73;;
5900;SDS011;2976;49.764;9.796;2022-09-01T00:21:14;2.80;;;2.00;;
5900;SDS011;2976;49.764;9.796;2022-09-01T00:23:41;3.23;;;1.90;;
5900;SDS011;2976;49.764;9.796;2022-09-01T00:26:07;3.13;;;2.57;;
5900;SDS011;2976;49.764;9.796;2022-09-01T00:28:33;3.23;;;2.20;;
5900;SDS011;2976;49.764;9.796;2022-09-01T00:30:59;1.73;;;1.73;;
5900;SDS011;2976;49.764;9.796;2022-09-01T00:33:25;1.73;;;1.63;;
5900;SDS011;2976;49.764;9.796;2022-09-01T00:35:51;1.73;;;1.67;;
5900;SDS011;2976;49.764;9.796;2022-09-01T00:38:16;3.23;;;2.00;;
5900;SDS011;2976;49.764;9.796;2022-09-01T00:40:42;2.60;;;1.80;;
5900;SDS011;2976;49.764;9.796;2022-09-01T00:43:51;2.00;;;1.90;;
5900;SDS011;2976;49.764;9.796;2022-09-01T00:46:06;2.43;;;2.23;;
5900;SDS011;2976;49.764;9.796;2022-09-01T00:48:34;9.53;;;2.20;;
5900;SDS011;2976;49.764;9.796;2022-09-01T00:51:00;2.07;;;1.90;;
5900;SDS011;2976;49.764;9.796;2022-09-01T00:53:26;2.40;;;1.83;;
5900;SDS011;2976;49.764;9.796;2022-09-01T00:55:52;3.40;;;1.73;;
5900;SDS011;2976;49.764;9.796;2022-09-01T00:58:18;2.97;;;1.90;;
5900;SDS011;2976;49.764;9.796;2022-09-01T01:00:44;2.47;;;2.10;;
5900;SDS011;2976;49.764;9.796;2022-09-01T01:03:13;1.93;;;1.83;;
5900;SDS011;2976;49.764;9.796;2022-09-01T01:05:40;2.97;;;2.17;;
5900;SDS011;2976;49.764;9.796;2022-09-01T01:08:12;2.90;;;2.20;;
5900;SDS011;2976;49.764;9.796;2022-09-01T01:10:43;2.30;;;2.10;;
5900;SDS011;2976;49.764;9.796;2022-09-01T01:13:14;2.43;;;2.20;;
5900;SDS011;2976;49.764;9.796;2022-09-01T01:15:41;3.70;;;2.00;;
5900;SDS011;2976;49.764;9.796;2022-09-01T01:18:14;3.07;;;2.77;;
5900;SDS011;2976;49.764;9.796;2022-09-01T01:20:40;2.10;;;1.90;;
5900;SDS011;2976;49.764;9.796;2022-09-01T01:26:01;2.77;;;1.57;;
5900;SDS011;2976;49.764;9.796;2022-09-01T01:28:29;2.20;;;2.10;;
5900;SDS011;2976;49.764;9.796;2022-09-01T01:31:07;2.70;;;1.90;;
5900;SDS011;2976;49.764;9.796;2022-09-01T01:33:45;2.77;;;2.33;;
5900;SDS011;2976;49.764;9.796;2022-09-01T01:36:14;4.77;;;2.50;;
5900;SDS011;2976;49.764;9.796;2022-09-01T01:38:44;2.10;;;1.90;;
5900;SDS011;2976;49.764;9.796;2022-09-01T01:41:12;8.50;;;2.90;;
5900;SDS011;2976;49.764;9.796;2022-09-01T01:43:39;2.53;;;2.33;;
5900;SDS011;2976;49.764;9.796;2022-09-01T01:46:06;3.00;;;2.80;;
5900;SDS011;2976;49.764;9.796;2022-09-01T01:48:35;2.17;;;2.07;;
5900;SDS011;2976;49.764;9.796;2022-09-01T01:51:03;2.80;;;2.60;;
5900;SDS011;2976;49.764;9.796;2022-09-01T01:53:29;4.33;;;2.50;;
5900;SDS011;2976;49.764;9.796;2022-09-01T01:55:55;2.97;;;2.60;;
5900;SDS011;2976;49.764;9.796;2022-09-01T01:58:24;2.63;;;2.30;;
5900;SDS011;2976;49.764;9.796;2022-09-01T02:00:53;2.60;;;2.07;;
5900;SDS011;2976;49.764;9.796;2022-09-01T02:03:20;2.40;;;2.30;;
5900;SDS011;2976;49.764;9.796;2022-09-01T02:05:49;1.97;;;1.87;;
5900;SDS011;2976;49.764;9.796;2022-09-01T02:08:17;2.03;;;1.93;;
5900;SDS011;2976;49.764;9.796;2022-09-01T02:10:47;2.30;;;2.10;;
5900;SDS011;2976;49.764;9.796;2022-09-01T02:13:16;4.03;;;2.13;;
5900;SDS011;2976;49.764;9.796;2022-09-01T02:15:51;3.30;;;2.30;;
5900;SDS011;2976;49.764;9.796;2022-09-01T02:18:20;2.37;;;2.17;;
5900;SDS011;2976;49.764;9.796;2022-09-01T02:20:48;6.17;;;2.10;;
5900;SDS011;2976;49.764;9.796;2022-09-01T02:23:16;2.43;;;2.23;;
5900;SDS011;2976;49.764;9.796;2022-09-01T02:25:47;9.07;;;2.27;;
5900;SDS011;2976;49.764;9.796;2022-09-01T02:28:13;9.27;;;2.60;;
5900;SDS011;2976;49.764;9.796;2022-09-01T02:30:43;2.00;;;1.90;;
5900;SDS011;2976;49.764;9.796;2022-09-01T02:33:09;2.43;;;2.30;;
5900;SDS011;2976;49.764;9.796;2022-09-01T02:35:45;6.40;;;2.10;;
5900;SDS011;2976;49.764;9.796;2022-09-01T02:38:11;2.40;;;2.20;;
5900;SDS011;2976;49.764;9.796;2022-09-01T02:40:38;2.17;;;2.03;;
5900;SDS011;2976;49.764;9.796;2022-09-01T02:43:05;4.13;;;2.23;;
5900;SDS011;2976;49.764;9.796;2022-09-01T02:45:31;3.13;;;2.30;;
5900;SDS011;2976;49.764;9.796;2022-09-01T02:47:58;5.80;;;2.30;;
5900;SDS011;2976;49.764;9.796;2022-09-01T02:50:24;8.30;;;2.83;;
5900;SDS011;2976;49.764;9.796;2022-09-01T02:52:50;3.13;;;2.77;;
5900;SDS011;2976;49.764;9.796;2022-09-01T02:55:17;3.33;;;2.50;;
5900;SDS011;2976;49.764;9.796;2022-09-01T02:57:46;2.53;;;2.33;;
5900;SDS011;2976;49.764;9.796;2022-09-01T03:00:14;3.53;;;3.20;;
5900;SDS011;2976;49.764;9.796;2022-09-01T03:02:54;2.70;;;2.47;;
5900;SDS011;2976;49.764;9.796;2022-09-01T03:05:22;2.73;;;2.60;;
5900;SDS011;2976;49.764;9.796;2022-09-01T03:07:55;2.80;;;2.60;;
5900;SDS011;2976;49.764;9.796;2022-09-01T03:10:26;3.67;;;3.10;;
5900;SDS011;2976;49.764;9.796;2022-09-01T03:12:57;3.80;;;2.70;;
5900;SDS011;2976;49.764;9.796;2022-09-01T03:15:24;3.13;;;2.87;;
5900;SDS011;2976;49.764;9.796;2022-09-01T03:17:51;4.63;;;2.50;;
5900;SDS011;2976;49.764;9.796;2022-09-01T03:20:17;3.00;;;2.20;;
5900;SDS011;2976;49.764;9.796;2022-09-01T03:22:45;2.80;;;2.60;;
5900;SDS011;2976;49.764;9.796;2022-09-01T03:25:12;3.50;;;2.13;;
5900;SDS011;2976;49.764;9.796;2022-09-01T03:27:38;2.97;;;2.77;;
5900;SDS011;2976;49.764;9.796;2022-09-01T03:30:04;3.20;;;2.87;;
5900;SDS011;2976;49.764;9.796;2022-09-01T03:32:30;5.23;;;2.50;;
5900;SDS011;2976;49.764;9.796;2022-09-01T03:34:56;2.87;;;2.67;;
5900;SDS011;2976;49.764;9.796;2022-09-01T03:37:22;3.03;;;2.77;;
5900;SDS011;2976;49.764;9.796;2022-09-01T03:39:48;6.93;;;3.30;;
5900;SDS011;2976;49.764;9.796;2022-09-01T03:42:13;9.47;;;2.63;;
5900;SDS011;2976;49.764;9.796;2022-09-01T03:44:46;2.50;;;2.30;;
5900;SDS011;2976;49.764;9.796;2022-09-01T03:47:13;2.60;;;2.40;;
5900;SDS011;2976;49.764;9.796;2022-09-01T03:49:39;3.40;;;2.70;;
5900;SDS011;2976;49.764;9.796;2022-09-01T03:52:07;4.07;;;3.07;;
5900;SDS011;2976;49.764;9.796;2022-09-01T03:54:34;3.07;;;2.83;;
5900;SDS011;2976;49.764;9.796;2022-09-01T03:57:00;3.30;;;3.10;;
5900;SDS011;2976;49.764;9.796;2022-09-01T03:59:25;3.13;;;2.60;;
5900;SDS011;2976;49.764;9.796;2022-09-01T04:01:53;2.83;;;2.63;;
5900;SDS011;2976;49.764;9.796;2022-09-01T04:04:21;2.97;;;2.77;;
5900;SDS011;2976;49.764;9.796;2022-09-01T04:06:47;3.40;;;2.63;;
5900;SDS011;2976;49.764;9.796;2022-09-01T04:09:13;2.60;;;2.50;;
5900;SDS011;2976;49.764;9.796;2022-09-01T04:11:39;2.83;;;2.63;;
5900;SDS011;2976;49.764;9.796;2022-09-01T04:14:05;5.23;;;2.67;;
5900;SDS011;2976;49.764;9.796;2022-09-01T04:16:34;3.13;;;2.60;;
5900;SDS011;2976;49.764;9.796;2022-09-01T04:19:20;2.57;;;2.37;;
5900;SDS011;2976;49.764;9.796;2022-09-01T04:21:52;3.30;;;3.10;;
5900;SDS011;2976;49.764;9.796;2022-09-01T04:24:23;6.73;;;3.00;;
5900;SDS011;2976;49.764;9.796;2022-09-01T04:26:52;3.10;;;2.80;;
5900;SDS011;2976;49.764;9.796;2022-09-01T04:29:19;3.60;;;3.30;;
5900;SDS011;2976;49.764;9.796;2022-09-01T04:31:51;3.17;;;2.90;;
5900;SDS011;2976;49.764;9.796;2022-09-01T04:34:25;2.50;;;2.40;;
5900;SDS011;2976;49.764;9.796;2022-09-01T04:36:52;4.10;;;2.97;;
5900;SDS011;2976;49.764;9.796;2022-09-01T04:39:18;4.20;;;3.80;;
5900;SDS011;2976;49.764;9.796;2022-09-01T04:41:45;3.50;;;3.20;;
5900;SDS011;2976;49.764;9.796;2022-09-01T04:44:12;4.37;;;3.30;;
5900;SDS011;2976;49.764;9.796;2022-09-01T04:46:40;3.60;;;3.30;;
5900;SDS011;2976;49.764;9.796;2022-09-01T04:49:10;4.10;;;3.77;;
5900;SDS011;2976;49.764;9.796;2022-09-01T04:51:43;4.80;;;3.90;;
5900;SDS011;2976;49.764;9.796;2022-09-01T04:54:11;4.40;;;4.00;;
5900;SDS011;2976;49.764;9.796;2022-09-01T04:56:38;5.33;;;3.17;;
5900;SDS011;2976;49.764;9.796;2022-09-01T04:59:07;3.50;;;3.20;;
5900;SDS011;2976;49.764;9.796;2022-09-01T05:01:34;4.23;;;3.33;;
5900;SDS011;2976;49.764;9.796;2022-09-01T05:04:07;4.03;;;3.73;;
5900;SDS011;2976;49.764;9.796;2022-09-01T05:06:39;3.47;;;3.27;;
5900;SDS011;2976;49.764;9.796;2022-09-01T05:09:06;3.97;;;3.67;;
5900;SDS011;2976;49.764;9.796;2022-09-01T05:11:34;3.80;;;3.50;;
5900;SDS011;2976;49.764;9.796;2022-09-01T05:14:01;6.07;;;3.67;;
5900;SDS011;2976;49.764;9.796;2022-09-01T05:16:28;2.90;;;2.80;;
5900;SDS011;2976;49.764;9.796;2022-09-01T05:18:54;7.43;;;2.87;;
5900;SDS011;2976;49.764;9.796;2022-09-01T05:21:22;3.13;;;2.67;;
5900;SDS011;2976;49.764;9.796;2022-09-01T05:23:52;3.33;;;2.80;;
5900;SDS011;2976;49.764;9.796;2022-09-01T05:26:19;7.07;;;3.77;;
5900;SDS011;2976;49.764;9.796;2022-09-01T05:28:48;3.07;;;2.87;;
5900;SDS011;2976;49.764;9.796;2022-09-01T05:31:17;4.20;;;3.30;;
5900;SDS011;2976;49.764;9.796;2022-09-01T05:33:44;5.70;;;2.73;;
5900;SDS011;2976;49.764;9.796;2022-09-01T05:36:12;3.13;;;2.93;;
5900;SDS011;2976;49.764;9.796;2022-09-01T05:38:44;3.33;;;3.03;;
5900;SDS011;2976;49.764;9.796;2022-09-01T05:41:12;3.53;;;3.23;;
5900;SDS011;2976;49.764;9.796;2022-09-01T05:43:40;2.90;;;2.70;;
5900;SDS011;2976;49.764;9.796;2022-09-01T05:46:16;3.83;;;3.53;;
5900;SDS011;2976;49.764;9.796;2022-09-01T05:48:45;3.60;;;2.97;;
5900;SDS011;2976;49.764;9.796;2022-09-01T05:51:13;2.60;;;2.43;;
5900;SDS011;2976;49.764;9.796;2022-09-01T05:53:42;5.83;;;3.37;;
5900;SDS011;2976;49.764;9.796;2022-09-01T05:56:08;4.97;;;2.70;;
5900;SDS011;2976;49.764;9.796;2022-09-01T05:58:37;4.13;;;2.90;;
5900;SDS011;2976;49.764;9.796;2022-09-01T06:01:04;2.70;;;2.50;;
5900;SDS011;2976;49.764;9.796;2022-09-01T06:03:30;6.00;;;2.73;;
5900;SDS011;2976;49.764;9.796;2022-09-01T06:06:00;2.17;;;2.03;;
5900;SDS011;2976;49.764;9.796;2022-09-01T06:08:27;3.63;;;2.40;;
5900;SDS011;2976;49.764;9.796;2022-09-01T06:10:53;2.87;;;1.90;;
5900;SDS011;2976;49.764;9.796;2022-09-01T06:13:19;2.10;;;1.90;;
5900;SDS011;2976;49.764;9.796;2022-09-01T06:15:46;4.10;;;1.53;;
5900;SDS011;2976;49.764;9.796;2022-09-01T06:18:13;2.30;;;1.80;;
5900;SDS011;2976;49.764;9.796;2022-09-01T06:20:42;2.07;;;1.87;;
5900;SDS011;2976;49.764;9.796;2022-09-01T06:23:10;2.07;;;1.90;;
5900;SDS011;2976;49.764;9.796;2022-09-01T06:25:39;3.40;;;1.67;;
5900;SDS011;2976;49.764;9.796;2022-09-01T06:28:09;3.40;;;1.50;;
5900;SDS011;2976;49.764;9.796;2022-09-01T06:30:36;2.27;;;2.10;;
5900;SDS011;2976;49.764;9.796;2022-09-01T06:33:02;2.83;;;1.90;;
5900;SDS011;2976;49.764;9.796;2022-09-01T06:35:33;2.00;;;1.77;;
5900;SDS011;2976;49.764;9.796;2022-09-01T06:38:00;6.53;;;1.90;;
5900;SDS011;2976;49.764;9.796;2022-09-01T06:40:26;9.43;;;2.30;;
5900;SDS011;2976;49.764;9.796;2022-09-01T06:42:52;4.70;;;2.47;;
5900;SDS011;2976;49.764;9.796;2022-09-01T06:45:19;7.93;;;1.90;;
5900;SDS011;2976;49.764;9.796;2022-09-01T06:47:47;2.93;;;2.20;;
5900;SDS011;2976;49.764;9.796;2022-09-01T06:50:15;5.07;;;2.33;;
5900;SDS011;2976;49.764;9.796;2022-09-01T06:52:46;4.97;;;2.37;;
5900;SDS011;2976;49.764;9.796;2022-09-01T06:55:14;3.40;;;2.30;;
5900;SDS011;2976;49.764;9.796;2022-09-01T06:57:41;6.20;;;1.73;;
5900;SDS011;2976;49.764;9.796;2022-09-01T07:00:13;7.40;;;2.27;;
5900;SDS011;2976;49.764;9.796;2022-09-01T07:02:45;3.93;;;2.00;;
5900;SDS011;2976;49.764;9.796;2022-09-01T07:05:13;2.37;;;2.27;;
5900;SDS011;2976;49.764;9.796;2022-09-01T07:07:46;1.87;;;1.77;;
5900;SDS011;2976;49.764;9.796;2022-09-01T07:10:15;1.90;;;1.80;;
5900;SDS011;2976;49.764;9.796;2022-09-01T07:12:46;2.63;;;1.70;;
5900;SDS011;2976;49.764;9.796;2022-09-01T07:15:13;2.40;;;1.83;;
5900;SDS011;2976;49.764;9.796;2022-09-01T07:17:41;2.87;;;2.00;;
5900;SDS011;2976;49.764;9.796;2022-09-01T07:20:15;1.77;;;1.67;;
5900;SDS011;2976;49.764;9.796;2022-09-01T07:22:43;2.03;;;1.90;;
5900;SDS011;2976;49.764;9.796;2022-09-01T07:25:08;2.07;;;1.97;;
5900;SDS011;2976;49.764;9.796;2022-09-01T07:27:36;1.80;;;1.70;;
5900;SDS011;2976;49.764;9.796;2022-09-01T07:30:03;4.07;;;1.97;;
5900;SDS011;2976;49.764;9.796;2022-09-01T07:32:33;3.07;;;2.60;;
5900;SDS011;2976;49.764;9.796;2022-09-01T07:35:00;1.83;;;1.73;;
5900;SDS011;2976;49.764;9.796;2022-09-01T07:37:30;7.77;;;2.50;;
5900;SDS011;2976;49.764;9.796;2022-09-01T07:39:55;4.23;;;2.20;;
5900;SDS011;2976;49.764;9.796;2022-09-01T07:42:22;2.00;;;1.90;;
5900;SDS011;2976;49.764;9.796;2022-09-01T07:44:48;1.80;;;1.70;;
5900;SDS011;2976;49.764;9.796;2022-09-01T07:47:14;2.57;;;2.37;;
5900;SDS011;2976;49.764;9.796;2022-09-01T07:49:41;3.10;;;2.10;;
5900;SDS011;2976;49.764;9.796;2022-09-01T07:52:07;2.37;;;2.17;;
5900;SDS011;2976;49.764;9.796;2022-09-01T07:54:32;3.73;;;1.90;;
5900;SDS011;2976;49.764;9.796;2022-09-01T07:57:01;3.97;;;1.90;;
5900;SDS011;2976;49.764;9.796;2022-09-01T07:59:27;2.93;;;2.17;;
5900;SDS011;2976;49.764;9.796;2022-09-01T08:01:53;3.57;;;2.40;;
5900;SDS011;2976;49.764;9.796;2022-09-01T08:04:20;4.60;;;2.13;;
5900;SDS011;2976;49.764;9.796;2022-09-01T08:06:47;5.63;;;1.90;;
5900;SDS011;2976;49.764;9.796;2022-09-01T08:09:13;2.23;;;1.40;;
5900;SDS011;2976;49.764;9.796;2022-09-01T08:11:38;4.83;;;1.50;;
5900;SDS011;2976;49.764;9.796;2022-09-01T08:14:04;2.13;;;1.90;;
5900;SDS011;2976;49.764;9.796;2022-09-01T08:16:29;3.70;;;2.07;;
5900;SDS011;2976;49.764;9.796;2022-09-01T08:18:56;2.27;;;2.07;;
5900;SDS011;2976;49.764;9.796;2022-09-01T08:21:22;3.30;;;2.10;;
5900;SDS011;2976;49.764;9.796;2022-09-01T08:23:50;3.27;;;1.80;;
5900;SDS011;2976;49.764;9.796;2022-09-01T08:26:17;3.63;;;1.90;;
5900;SDS011;2976;49.764;9.796;2022-09-01T08:28:44;2.00;;;1.90;;
5900;SDS011;2976;49.764;9.796;2022-09-01T08:31:11;1.67;;;1.57;;
5900;SDS011;2976;49.764;9.796;2022-09-01T08:33:39;3.80;;;2.00;;
5900;SDS011;2976;49.764;9.796;2022-09-01T08:36:07;1.80;;;1.50;;
5900;SDS011;2976;49.764;9.796;2022-09-01T08:38:34;3.77;;;1.90;;
5900;SDS011;2976;49.764;9.796;2022-09-01T08:41:00;3.80;;;1.63;;
5900;SDS011;2976;49.764;9.796;2022-09-01T08:43:33;2.87;;;1.67;;
5900;SDS011;2976;49.764;9.796;2022-09-01T08:48:45;1.83;;;1.70;;
5900;SDS011;2976;49.764;9.796;2022-09-01T08:53:49;4.03;;;2.10;;
5900;SDS011;2976;49.764;9.796;2022-09-01T08:56:38;3.53;;;1.90;;
5900;SDS011;2976;49.764;9.796;2022-09-01T08:59:05;4.50;;;1.53;;
5900;SDS011;2976;49.764;9.796;2022-09-01T09:04:18;3.93;;;1.73;;
5900;SDS011;2976;49.764;9.796;2022-09-01T09:06:51;3.17;;;1.80;;
5900;SDS011;2976;49.764;9.796;2022-09-01T09:09:49;1.87;;;1.73;;
5900;SDS011;2976;49.764;9.796;2022-09-01T09:15:02;5.80;;;1.70;;
5900;SDS011;2976;49.764;9.796;2022-09-01T09:17:39;5.83;;;2.13;;
5900;SDS011;2976;49.764;9.796;2022-09-01T09:20:13;3.33;;;1.90;;
5900;SDS011;2976;49.764;9.796;2022-09-01T09:22:47;2.67;;;2.00;;
5900;SDS011;2976;49.764;9.796;2022-09-01T09:25:14;2.73;;;1.93;;
5900;SDS011;2976;49.764;9.796;2022-09-01T09:27:45;6.27;;;1.90;;
5900;SDS011;2976;49.764;9.796;2022-09-01T09:30:23;1.80;;;1.30;;
5900;SDS011;2976;49.764;9.796;2022-09-01T09:35:36;3.07;;;1.77;;
5900;SDS011;2976;49.764;9.796;2022-09-01T09:40:57;2.53;;;1.73;;
5900;SDS011;2976;49.764;9.796;2022-09-01T09:43:32;2.00;;;1.80;;
5900;SDS011;2976;49.764;9.796;2022-09-01T09:51:51;4.37;;;1.70;;
5900;SDS011;2976;49.764;9.796;2022-09-01T09:54:27;5.30;;;1.77;;
5900;SDS011;2976;49.764;9.796;2022-09-01T09:59:56;1.70;;;1.60;;
5900;SDS011;2976;49.764;9.796;2022-09-01T10:02:34;5.50;;;1.90;;
5900;SDS011;2976;49.764;9.796;2022-09-01T10:05:47;2.60;;;2.17;;
5900;SDS011;2976;49.764;9.796;2022-09-01T10:07:59;7.30;;;1.53;;
5900;SDS011;2976;49.764;9.796;2022-09-01T10:10:30;4.63;;;1.70;;
5900;SDS011;2976;49.764;9.796;2022-09-01T10:13:11;3.50;;;1.67;;
5900;SDS011;2976;49.764;9.796;2022-09-01T10:15:40;4.43;;;1.47;;
5900;SDS011;2976;49.764;9.796;2022-09-01T10:18:09;3.00;;;1.77;;
5900;SDS011;2976;49.764;9.796;2022-09-01T10:20:39;3.83;;;2.23;;
5900;SDS011;2976;49.764;9.796;2022-09-01T10:23:29;9.93;;;2.00;;
5900;SDS011;2976;49.764;9.796;2022-09-01T10:25:59;2.20;;;2.00;;
5900;SDS011;2976;49.764;9.796;2022-09-01T10:28:32;1.90;;;1.63;;
5900;SDS011;2976;49.764;9.796;2022-09-01T10:31:03;1.60;;;1.47;;
5900;SDS011;2976;49.764;9.796;2022-09-01T10:33:28;2.63;;;1.53;;
5900;SDS011;2976;49.764;9.796;2022-09-01T10:35:54;6.67;;;1.70;;
5900;SDS011;2976;49.764;9.796;2022-09-01T10:38:27;2.00;;;1.83;;
5900;SDS011;2976;49.764;9.796;2022-09-01T10:40:54;3.90;;;1.60;;
5900;SDS011;2976;49.764;9.796;2022-09-01T10:48:44;3.73;;;1.57;;
5900;SDS011;2976;49.764;9.796;2022-09-01T10:53:38;2.23;;;1.10;;
5900;SDS011;2976;49.764;9.796;2022-09-01T10:56:10;2.50;;;1.50;;
5900;SDS011;2976;49.764;9.796;2022-09-01T11:01:14;2.83;;;1.60;;
5900;SDS011;2976;49.764;9.796;2022-09-01T11:03:55;1.50;;;1.40;;
5900;SDS011;2976;49.764;9.796;2022-09-01T11:06:31;1.80;;;1.60;;
5900;SDS011;2976;49.764;9.796;2022-09-01T11:15:00;1.77;;;1.67;;
5900;SDS011;2976;49.764;9.796;2022-09-01T11:17:30;3.27;;;1.33;;
5900;SDS011;2976;49.764;9.796;2022-09-01T11:20:08;2.73;;;1.43;;
5900;SDS011;2976;49.764;9.796;2022-09-01T11:22:36;1.20;;;1.10;;
5900;SDS011;2976;49.764;9.796;2022-09-01T11:30:17;6.93;;;1.50;;
5900;SDS011;2976;49.764;9.796;2022-09-01T11:32:58;2.80;;;1.60;;
5900;SDS011;2976;49.764;9.796;2022-09-01T11:35:35;2.97;;;1.30;;
5900;SDS011;2976;49.764;9.796;2022-09-01T11:38:01;1.50;;;1.40;;
5900;SDS011;2976;49.764;9.796;2022-09-01T11:40:31;2.50;;;1.30;;
5900;SDS011;2976;49.764;9.796;2022-09-01T11:42:59;4.10;;;1.77;;
5900;SDS011;2976;49.764;9.796;2022-09-01T11:48:45;1.83;;;1.67;;
5900;SDS011;2976;49.764;9.796;2022-09-01T11:51:12;5.37;;;1.40;;
5900;SDS011;2976;49.764;9.796;2022-09-01T11:53:38;1.60;;;1.50;;
5900;SDS011;2976;49.764;9.796;2022-09-01T11:56:18;1.77;;;1.33;;
5900;SDS011;2976;49.764;9.796;2022-09-01T11:58:48;1.60;;;1.50;;
5900;SDS011;2976;49.764;9.796;2022-09-01T12:01:18;1.43;;;1.33;;
5900;SDS011;2976;49.764;9.796;2022-09-01T12:03:47;2.10;;;1.10;;
5900;SDS011;2976;49.764;9.796;2022-09-01T12:06:33;1.73;;;1.63;;
5900;SDS011;2976;49.764;9.796;2022-09-01T12:09:00;2.53;;;1.30;;
5900;SDS011;2976;49.764;9.796;2022-09-01T12:11:30;1.80;;;1.30;;
5900;SDS011;2976;49.764;9.796;2022-09-01T12:14:02;4.27;;;2.00;;
5900;SDS011;2976;49.764;9.796;2022-09-01T12:16:30;1.70;;;1.60;;
5900;SDS011;2976;49.764;9.796;2022-09-01T12:18:59;1.50;;;1.30;;
5900;SDS011;2976;49.764;9.796;2022-09-01T12:21:29;2.50;;;1.20;;
5900;SDS011;2976;49.764;9.796;2022-09-01T12:26:44;3.70;;;1.47;;
5900;SDS011;2976;49.764;9.796;2022-09-01T12:29:12;1.70;;;1.60;;
5900;SDS011;2976;49.764;9.796;2022-09-01T12:31:43;1.43;;;1.33;;
5900;SDS011;2976;49.764;9.796;2022-09-01T12:34:27;3.70;;;1.80;;
5900;SDS011;2976;49.764;9.796;2022-09-01T12:37:05;1.23;;;1.20;;
5900;SDS011;2976;49.764;9.796;2022-09-01T12:39:55;1.37;;;1.27;;
5900;SDS011;2976;49.764;9.796;2022-09-01T12:42:23;1.50;;;1.40;;
5900;SDS011;2976;49.764;9.796;2022-09-01T12:44:50;1.50;;;1.40;;
5900;SDS011;2976;49.764;9.796;2022-09-01T12:52:46;3.60;;;1.67;;
5900;SDS011;2976;49.764;9.796;2022-09-01T12:55:16;2.77;;;1.30;;
5900;SDS011;2976;49.764;9.796;2022-09-01T12:57:50;1.47;;;1.20;;
5900;SDS011;2976;49.764;9.796;2022-09-01T13:07:53;2.60;;;1.23;;
5900;SDS011;2976;49.764;9.796;2022-09-01T13:10:21;1.23;;;1.13;;
5900;SDS011;2976;49.764;9.796;2022-09-01T13:12:49;1.73;;;1.10;;
5900;SDS011;2976;49.764;9.796;2022-09-01T13:15:15;2.10;;;1.50;;
5900;SDS011;2976;49.764;9.796;2022-09-01T13:17:41;3.70;;;1.57;;
5900;SDS011;2976;49.764;9.796;2022-09-01T13:20:07;1.80;;;1.27;;
5900;SDS011;2976;49.764;9.796;2022-09-01T13:22:34;3.80;;;1.53;;
5900;SDS011;2976;49.764;9.796;2022-09-01T13:25:00;1.10;;;1.10;;
5900;SDS011;2976;49.764;9.796;2022-09-01T13:27:26;5.00;;;1.40;;
5900;SDS011;2976;49.764;9.796;2022-09-01T13:29:52;1.17;;;1.10;;
5900;SDS011;2976;49.764;9.796;2022-09-01T13:32:18;1.53;;;1.43;;
5900;SDS011;2976;49.764;9.796;2022-09-01T13:34:46;4.70;;;1.80;;
5900;SDS011;2976;49.764;9.796;2022-09-01T13:37:12;4.87;;;1.50;;
5900;SDS011;2976;49.764;9.796;2022-09-01T13:39:38;3.83;;;1.37;;
5900;SDS011;2976;49.764;9.796;2022-09-01T13:42:04;1.63;;;1.57;;
5900;SDS011;2976;49.764;9.796;2022-09-01T13:44:29;1.17;;;1.00;;
5900;SDS011;2976;49.764;9.796;2022-09-01T13:46:55;2.23;;;1.33;;
5900;SDS011;2976;49.764;9.796;2022-09-01T13:49:20;1.80;;;1.27;;
5900;SDS011;2976;49.764;9.796;2022-09-01T13:51:52;2.27;;;1.50;;
5900;SDS011;2976;49.764;9.796;2022-09-01T13:54:19;1.83;;;1.20;;
5900;SDS011;2976;49.764;9.796;2022-09-01T13:56:44;4.23;;;1.30;;
5900;SDS011;2976;49.764;9.796;2022-09-01T13:59:10;2.23;;;1.20;;
5900;SDS011;2976;49.764;9.796;2022-09-01T14:01:36;4.10;;;1.43;;
5900;SDS011;2976;49.764;9.796;2022-09-01T14:04:01;1.30;;;1.13;;
5900;SDS011;2976;49.764;9.796;2022-09-01T14:06:30;1.60;;;1.50;;
5900;SDS011;2976;49.764;9.796;2022-09-01T14:08:57;1.07;;;1.07;;
5900;SDS011;2976;49.764;9.796;2022-09-01T14:11:23;1.20;;;1.10;;
5900;SDS011;2976;49.764;9.796;2022-09-01T14:13:49;0.90;;;0.90;;
5900;SDS011;2976;49.764;9.796;2022-09-01T14:16:14;1.80;;;1.40;;
5900;SDS011;2976;49.764;9.796;2022-09-01T14:18:40;2.47;;;1.67;;
5900;SDS011;2976;49.764;9.796;2022-09-01T14:21:09;2.10;;;1.10;;
5900;SDS011;2976;49.764;9.796;2022-09-01T14:23:37;2.20;;;1.23;;
5900;SDS011;2976;49.764;9.796;2022-09-01T14:26:06;3.67;;;1.40;;
5900;SDS011;2976;49.764;9.796;2022-09-01T14:28:33;1.40;;;1.30;;
5900;SDS011;2976;49.764;9.796;2022-09-01T14:30:59;1.97;;;1.10;;
5900;SDS011;2976;49.764;9.796;2022-09-01T14:33:26;7.40;;;1.53;;
5900;SDS011;2976;49.764;9.796;2022-09-01T14:35:51;2.70;;;1.63;;
5900;SDS011;2976;49.764;9.796;2022-09-01T14:38:18;1.67;;;1.40;;
5900;SDS011;2976;49.764;9.796;2022-09-01T14:40:45;1.70;;;1.70;;
5900;SDS011;2976;49.764;9.796;2022-09-01T14:43:12;4.60;;;1.63;;
5900;SDS011;2976;49.764;9.796;2022-09-01T14:45:38;1.90;;;1.40;;
5900;SDS011;2976;49.764;9.796;2022-09-01T14:48:05;1.27;;;1.17;;
5900;SDS011;2976;49.764;9.796;2022-09-01T14:50:31;1.40;;;1.30;;
5900;SDS011;2976;49.764;9.796;2022-09-01T14:52:58;1.67;;;1.30;;
5900;SDS011;2976;49.764;9.796;2022-09-01T14:55:25;1.67;;;1.20;;
5900;SDS011;2976;49.764;9.796;2022-09-01T14:57:53;1.40;;;1.30;;
5900;SDS011;2976;49.764;9.796;2022-09-01T15:00:19;2.80;;;1.30;;
5900;SDS011;2976;49.764;9.796;2022-09-01T15:02:48;3.43;;;1.50;;
5900;SDS011;2976;49.764;9.796;2022-09-01T15:05:14;1.53;;;1.37;;
5900;SDS011;2976;49.764;9.796;2022-09-01T15:07:40;1.50;;;1.40;;
5900;SDS011;2976;49.764;9.796;2022-09-01T15:10:07;3.80;;;1.40;;
5900;SDS011;2976;49.764;9.796;2022-09-01T15:12:35;2.60;;;1.57;;
5900;SDS011;2976;49.764;9.796;2022-09-01T15:15:04;1.50;;;1.40;;
5900;SDS011;2976;49.764;9.796;2022-09-01T15:17:31;3.83;;;1.23;;
5900;SDS011;2976;49.764;9.796;2022-09-01T15:19:57;1.10;;;1.00;;
5900;SDS011;2976;49.764;9.796;2022-09-01T15:22:44;2.20;;;1.33;;
5900;SDS011;2976;49.764;9.796;2022-09-01T15:25:09;3.33;;;1.50;;
5900;SDS011;2976;49.764;9.796;2022-09-01T15:27:35;1.43;;;1.33;;
5900;SDS011;2976;49.764;9.796;2022-09-01T15:30:00;1.77;;;1.67;;
5900;SDS011;2976;49.764;9.796;2022-09-01T15:32:26;5.67;;;1.80;;
5900;SDS011;2976;49.764;9.796;2022-09-01T15:34:51;1.17;;;1.17;;
5900;SDS011;2976;49.764;9.796;2022-09-01T15:37:16;5.60;;;1.40;;
5900;SDS011;2976;49.764;9.796;2022-09-01T15:39:42;1.80;;;1.57;;
5900;SDS011;2976;49.764;9.796;2022-09-01T15:42:07;1.30;;;1.23;;
5900;SDS011;2976;49.764;9.796;2022-09-01T15:44:33;1.70;;;1.53;;
5900;SDS011;2976;49.764;9.796;2022-09-01T15:46:59;3.50;;;1.50;;
5900;SDS011;2976;49.764;9.796;2022-09-01T15:49:25;2.83;;;1.50;;
5900;SDS011;2976;49.764;9.796;2022-09-01T15:51:50;2.20;;;1.70;;
5900;SDS011;2976;49.764;9.796;2022-09-01T15:54:19;2.10;;;1.57;;
5900;SDS011;2976;49.764;9.796;2022-09-01T15:56:46;4.97;;;1.57;;
5900;SDS011;2976;49.764;9.796;2022-09-01T15:59:13;1.60;;;1.30;;
5900;SDS011;2976;49.764;9.796;2022-09-01T16:01:40;3.60;;;1.33;;
5900;SDS011;2976;49.764;9.796;2022-09-01T16:04:08;1.60;;;1.03;;
5900;SDS011;2976;49.764;9.796;2022-09-01T16:06:41;1.50;;;1.40;;
5900;SDS011;2976;49.764;9.796;2022-09-01T16:09:07;1.47;;;1.47;;
5900;SDS011;2976;49.764;9.796;2022-09-01T16:11:33;1.67;;;1.57;;
5900;SDS011;2976;49.764;9.796;2022-09-01T16:14:00;11.93;;;2.80;;
5900;SDS011;2976;49.764;9.796;2022-09-01T16:16:40;1.30;;;1.30;;
5900;SDS011;2976;49.764;9.796;2022-09-01T16:22:22;7.67;;;2.00;;
5900;SDS011;2976;49.764;9.796;2022-09-01T16:24:52;1.40;;;1.30;;
5900;SDS011;2976;49.764;9.796;2022-09-01T16:27:26;2.70;;;1.60;;
5900;SDS011;2976;49.764;9.796;2022-09-01T16:29:57;1.77;;;1.40;;
5900;SDS011;2976;49.764;9.796;2022-09-01T16:32:33;1.53;;;1.33;;
5900;SDS011;2976;49.764;9.796;2022-09-01T16:35:03;1.73;;;1.37;;
5900;SDS011;2976;49.764;9.796;2022-09-01T16:43:17;2.97;;;1.13;;